Latest Coastal Weather Observations for Moorabbin Airport

IDV60701

Issued at 1:12 am EST Thursday 3 September 2026 (issued every 10 minutes, with the page automatically refreshed every 10 minutes)

About coastal observations | Map of coastal stations | Coastal observations for VIC | Marine services | Other Formats
Station Details ID: 086077 Name: MOORABBIN AIRPORT Lat: -37.98 Lon: 145.10 Height: 12.1 m
Data from the previous 72 hours. | See also: Recent months at Moorabbin Airport
Date/Time
EST
Wind Sea
Height
m
Swell Vis
km
Cloud Weather Temp
°C
Press
MSL
hPa
Rain since
9am
mm
Dir  Spd
kts
Gust
kts
Height
m
Period
s
Dir
03/01:00am NNW 7 9 - - - - 10 Clear - 10.5 1010.4 0.2
03/12:30am NNW 6 9 - - - - 10 - - 10.4 1010.4 0.2
03/12:00am N 6 7 - - - - 10 - - 10.4 1010.7 0.2
 
Date/Time
EST
Wind Sea
Height
m
Swell Vis
km
Cloud Weather Temp
°C
Press
MSL
hPa
Rain since
9am
mm
Dir  Spd
kts
Gust
kts
Height
m
Period
s
Dir
02/11:30pm N 6 8 - - - - 10 - - 11.2 1010.8 0.2
02/11:00pm NNW 9 13 - - - - 10 - - 12.1 1011.2 0.2
02/10:30pm NW 7 11 - - - - 10 Mostly clear - 12.1 1011.5 0.2
02/10:00pm NW 9 12 - - - - 10 Partly cloudy - 13.1 1011.9 0.2
02/09:30pm NW 9 15 - - - - 10 Cloudy - 14.0 1011.9 0.2
02/09:00pm WNW 3 4 - - - - 10 Cloudy - 13.2 1012.0 0.2
02/08:30pm NW 4 5 - - - - 10 Cloudy - 13.5 1012.0 0.2
02/08:00pm WNW 3 5 - - - - 10 Partly cloudy - 13.2 1011.9 0.2
02/07:30pm NNW 3 4 - - - - 10 Cloudy - 12.7 1011.6 0.2
02/07:00pm N 4 4 - - - - 10 Cloudy - 12.5 1011.3 0.2
02/06:30pm CALM 0 3 - - - - 10 Partly cloudy - 12.6 1011.4 0.2
02/06:00pm CALM 0 2 - - - - 10 - - 13.0 1011.3 0.2
02/05:30pm SW 5 7 - - - - 10 Partly cloudy - 13.8 1011.3 0.2
02/05:00pm SW 6 8 - - - - 10 Partly cloudy - 14.4 1011.3 0.2
02/04:30pm SW 8 12 - - - - 10 Partly cloudy - 14.4 1011.6 0.2
02/04:00pm WSW 10 13 - - - - 10 Mostly clear - 14.7 1012.0 0.2
02/03:30pm SW 9 13 - - - - 10 - - 14.5 1012.3 0.2
02/03:00pm SW 9 13 - - - - 10 - - 14.7 1012.5 0.2
02/02:30pm WSW 9 13 - - - - 10 - - 14.6 1012.6 0.2
02/02:00pm WSW 9 13 - - - - 10 - - 14.2 1012.8 0.2
02/01:30pm SW 11 16 - - - - 10 - - 14.1 1013.0 0.2
02/01:00pm WSW 10 13 - - - - 10 Partly cloudy - 14.2 1013.6 0.2
02/12:30pm WSW 10 14 - - - - 10 Partly cloudy - 13.5 1014.4 0.0
02/12:00pm WSW 9 14 - - - - 10 Mostly cloudy - 13.6 1014.8 0.0
02/11:30am WSW 8 11 - - - - 10 Cloudy - 13.4 1015.0 0.0
02/11:00am W 9 14 - - - - 10 Mostly clear - 13.3 1015.2 0.0
02/10:30am W 11 15 - - - - 10 Mostly clear - 13.0 1015.5 0.0
02/10:00am W 9 13 - - - - 10 Cloudy - 13.4 1015.7 0.0
02/09:30am W 10 15 - - - - 10 Cloudy - 12.4 1015.8 0.0
02/09:00am W 9 13 - - - - 10 Partly cloudy - 12.4 1015.7 0.2
02/08:30am W 10 15 - - - - 10 Partly cloudy - 12.1 1015.5 0.2
02/08:00am W 10 14 - - - - 10 Partly cloudy - 12.1 1015.1 0.2
02/07:30am W 10 14 - - - - 10 Partly cloudy - 12.2 1014.8 0.2
02/07:00am W 12 18 - - - - 10 Partly cloudy - 12.1 1014.6 0.2
02/06:30am W 9 14 - - - - 10 Partly cloudy - 12.2 1014.1 0.2
02/06:00am W 8 12 - - - - 10 Cloudy - 12.3 1013.8 0.2
02/05:30am W 8 12 - - - - 10 Cloudy - 12.8 1013.7 0.2
02/05:00am W 7 11 - - - - 10 Cloudy - 12.9 1013.5 0.2
02/04:30am WSW 8 13 - - - - 10 Partly cloudy - 13.2 1013.0 0.2
02/04:00am SW 9 15 - - - - 10 Partly cloudy - 13.5 1012.7 0.2
02/03:30am NW 8 11 - - - - 10 Partly cloudy - 16.0 1011.9 0.2
02/03:00am NW 9 12 - - - - 10 Cloudy - 16.0 1011.9 0.2
02/02:30am NW 9 12 - - - - 10 Cloudy - 16.2 1012.2 0.2
02/02:00am NW 9 11 - - - - 10 Partly cloudy - 16.2 1012.3 0.2
02/01:30am NW 7 10 - - - - 10 Cloudy - 16.3 1012.3 0.2
02/01:00am NW 7 11 - - - - 10 Partly cloudy - 16.2 1012.3 0.2
02/12:30am NW 10 15 - - - - 10 Cloudy - 16.4 1012.3 0.2
02/12:00am NW 10 16 - - - - 10 Cloudy Rain 16.3 1012.4 0.2
 
Date/Time
EST
Wind Sea
Height
m
Swell Vis
km
Cloud Weather Temp
°C
Press
MSL
hPa
Rain since
9am
mm
Dir  Spd
kts
Gust
kts
Height
m
Period
s
Dir
01/11:30pm NW 12 18 - - - - 10 Partly cloudy - 17.6 1012.4 0.2
01/11:00pm NW 13 19 - - - - 10 Mostly clear - 17.7 1012.7 0.2
01/10:30pm NNW 15 22 - - - - 10 Partly cloudy - 17.9 1012.4 0.2
01/10:10pm NNW 16 32 - - - - 10 Partly cloudy - 17.9 1012.3 0.2
01/10:00pm NNW 16 24 - - - - 10 Mostly clear - 17.7 1012.2 0.0
01/09:30pm NNW 13 19 - - - - 10 Partly cloudy - 18.4 1012.1 0.0
01/09:00pm NNW 13 18 - - - - 10 Mostly cloudy Showers 18.0 1012.1 0.0
01/08:55pm NNW 12 18 - - - - 10 Cloudy - 18.0 1012.0 0.0
01/08:35pm NNW 17 27 - - - - 10 Cloudy - 18.3 1011.9 0.0
01/08:30pm NNW 16 25 - - - - 10 Cloudy - 18.3 1011.9 0.0
01/08:00pm NNW 12 17 - - - - 10 Mostly clear - 19.0 1011.9 0.0
01/07:30pm NNW 15 22 - - - - 10 Mostly clear - 19.0 1012.1 0.0
01/07:00pm N 15 20 - - - - 10 Mostly clear - 19.5 1012.2 0.0
01/06:30pm N 13 18 - - - - 10 Partly cloudy - 19.6 1012.7 0.0
01/06:00pm NNW 15 20 - - - - 10 Cloudy - 19.9 1013.1 0.0
01/05:30pm NNW 14 20 - - - - 10 Mostly clear - 20.3 1013.4 0.0
01/05:25pm NNW 15 24 - - - - 10 Mostly clear - 20.4 1013.3 0.0
01/05:12pm NNW 15 25 - - - - 10 - - 20.5 1013.0 0.0
01/05:00pm NNW 15 23 - - - - 10 - - 20.5 1013.1 0.0
01/04:30pm NNW 16 25 - - - - 10 - - 20.5 1013.2 0.0
01/04:23pm NNW 17 25 - - - - 10 - - 20.5 1013.2 0.0
01/04:00pm NNW 17 27 - - - - 10 - - 20.6 1013.0 0.0
01/03:58pm NNW 17 27 - - - - 10 - - 20.6 1013.0 0.0
01/03:39pm NNW 17 25 - - - - 10 - - 20.6 1012.8 0.0
01/03:30pm NNW 18 25 - - - - 10 - - 20.7 1012.7 0.0
01/03:13pm NNW 22 32 - - - - 10 - - 20.9 1012.7 0.0
01/03:00pm NNW 21 30 - - - - 10 Partly cloudy - 20.8 1012.6 0.0
01/02:30pm NNW 20 32 - - - - 10 - - 21.3 1013.3 0.0
01/02:18pm NNW 20 31 - - - - 10 - - 21.3 1013.5 0.0
01/02:00pm NNW 22 28 - - - - 10 - - 21.2 1013.8 0.0
01/01:46pm NNW 19 29 - - - - 10 - - 21.2 1014.2 0.0
01/01:45pm NNW 19 27 - - - - 10 - - 21.4 1014.3 0.0
01/01:30pm NW 20 30 - - - - 10 Mostly clear - 21.5 1014.7 0.0
01/01:26pm NNW 20 30 - - - - 10 Mostly clear - 21.5 1014.7 0.0
01/01:09pm NNW 22 30 - - - - - Mostly clear - 21.3 1015.0 0.0
01/01:00pm NNW 22 31 - - - - 10 - - 21.2 1015.2 0.0
01/12:46pm N 19 29 - - - - 10 - - 21.0 1015.6 0.0
01/12:38pm N 20 29 - - - - 10 - - 21.1 1015.8 0.0
01/12:30pm N 22 31 - - - - 10 - - 20.5 1016.0 0.0
01/12:21pm NNW 21 31 - - - - 10 - - 20.3 1016.1 0.0
01/12:00pm N 22 30 - - - - 10 - - 20.3 1016.5 0.0
01/11:55am N 23 30 - - - - 10 - - 20.0 1016.5 0.0
01/11:30am N 24 33 - - - - 10 - - 19.8 1016.4 0.0
01/11:07am N 22 33 - - - - 10 - - 19.7 1016.9 0.0
01/11:02am N 25 32 - - - - 10 - - 19.2 1016.9 0.0
01/11:00am N 25 32 - - - - 10 - - 19.1 1016.9 0.0
01/10:52am N 23 33 - - - - 10 - - 19.1 1017.0 0.0
01/10:45am N 25 33 - - - - 10 - - 18.8 1017.2 0.0
01/10:30am N 24 37 - - - - 10 - - 18.7 1017.8 0.0
01/10:11am N 21 31 - - - - 10 - - 18.4 1018.1 0.0
01/10:09am N 21 30 - - - - 10 - - 18.7 1018.3 0.0
01/10:00am N 22 31 - - - - 10 - - 18.1 1018.2 0.0
01/09:39am N 23 34 - - - - 10 - - 17.4 1018.4 0.0
01/09:34am N 24 30 - - - - 10 - - 17.3 1018.6 0.0
01/09:30am N 24 30 - - - - 10 - - 17.1 1018.7 0.0
01/09:20am N 19 31 - - - - 10 - - 16.7 1019.1 0.0
01/09:00am N 20 28 - - - - 10 - - 16.1 1019.7 0.0
01/08:30am N 15 22 - - - - 10 - - 15.2 1020.3 0.0
01/08:00am N 12 17 - - - - 10 - - 14.1 1020.8 0.0
01/07:30am NNW 12 17 - - - - 10 - - 13.3 1020.7 0.0
01/07:00am NNW 11 15 - - - - 10 - - 12.8 1020.7 0.0
01/06:30am N 9 12 - - - - 10 - - 12.0 1020.7 0.0
01/06:00am N 9 11 - - - - 10 - - 11.9 1020.9 0.0
01/05:30am N 10 14 - - - - 10 - - 12.1 1021.0 0.0
01/05:00am N 9 10 - - - - 10 - - 11.9 1021.2 0.0
01/04:30am N 7 9 - - - - 10 - - 11.6 1021.4 0.0
01/04:00am NNE 5 6 - - - - 10 - - 9.3 1021.8 0.0
01/03:30am NNW 5 7 - - - - 10 - - 10.7 1022.2 0.0
01/03:00am NNW 6 8 - - - - 10 - - 11.4 1022.4 0.0
01/02:30am NW 6 8 - - - - 10 - - 10.9 1022.9 0.0
01/02:08am NNW 7 9 - - - - 10 - - 11.8 1023.2 0.0
01/02:00am N 8 9 - - - - 10 - - 11.8 1023.2 0.0
01/01:42am NNW 8 10 - - - - 4 - - 11.9 1023.5 0.0
01/01:30am NNW 7 9 - - - - 10 - - 11.6 1023.7 0.0
01/01:25am N 7 8 - - - - 10 - - 11.7 1023.7 0.0
01/01:00am N 2 4 - - - - 10 - - 6.7 1023.8 0.0
01/12:30am N 2 3 - - - - 10 - - 7.2 1024.3 0.0
01/12:00am CALM 0 0 - - - - 10 - - 7.3 1024.9 0.0
 
Date/Time
EST
Wind Sea
Height
m
Swell Vis
km
Cloud Weather Temp
°C
Press
MSL
hPa
Rain since
9am
mm
Dir  Spd
kts
Gust
kts
Height
m
Period
s
Dir
31/11:30pm CALM 0 0 - - - - 10 - - 8.4 1025.4 0.0
31/11:00pm CALM 0 0 - - - - 10 - - 8.2 1025.9 0.0
31/10:30pm CALM 0 0 - - - - 10 - - 8.5 1026.2 0.0
31/10:00pm N 2 3 - - - - 10 - - 8.4 1026.3 0.0
31/09:30pm N 1 4 - - - - 10 - - 9.4 1026.4 0.0
31/09:00pm CALM 0 0 - - - - 10 - - 9.1 1026.6 0.0
31/08:30pm CALM 0 0 - - - - 10 - - 9.7 1026.8 0.0
31/08:00pm CALM 0 0 - - - - 10 - - 10.2 1026.9 0.0
31/07:30pm CALM 0 0 - - - - 10 - - 10.0 1027.1 0.0
31/07:00pm CALM 0 0 - - - - 10 - - 10.8 1027.3 0.0
31/06:30pm CALM 0 0 - - - - 10 - - 11.5 1027.4 0.0
31/06:00pm SSW 3 4 - - - - 10 - - 12.9 1027.4 0.0
31/05:30pm SSW 5 6 - - - - 10 - - 13.6 1027.5 0.0
31/05:00pm S 5 6 - - - - 10 - - 13.9 1027.6 0.0
31/04:30pm SSW 5 7 - - - - 10 - - 14.4 1027.8 0.0
31/04:00pm SSW 5 7 - - - - 10 - - 14.9 1028.1 0.0
31/03:30pm SSW 6 7 - - - - 10 - - 14.4 1028.3 0.0
31/03:00pm SSW 6 7 - - - - 10 - - 14.0 1028.7 0.0
31/02:30pm SW 7 8 - - - - 10 - - 13.8 1029.2 0.0
31/02:00pm SSW 5 7 - - - - 10 - - 14.1 1029.6 0.0
31/01:30pm SSW 5 7 - - - - 10 - - 13.6 1030.1 0.0
31/01:00pm SW 4 6 - - - - 10 - - 13.6 1030.6 0.0
31/12:30pm SW 5 8 - - - - 10 - - 13.0 1031.2 0.0
31/12:00pm SSW 5 7 - - - - 10 Partly cloudy - 13.0 1031.7 0.0
31/11:39am S 3 8 - - - - 10 Cloudy - 12.5 1032.1 0.0
31/11:30am SSW 2 5 - - - - 10 Cloudy - 12.2 1032.2 0.0
31/11:00am WNW 5 7 - - - - 10 Cloudy - 11.7 1032.5 0.0
31/10:30am W 5 8 - - - - 10 Cloudy - 11.5 1032.7 0.0
31/10:00am WSW 6 7 - - - - 10 Cloudy - 11.0 1032.7 0.0
31/09:30am WSW 7 9 - - - - 10 Cloudy - 10.9 1032.8 0.0
31/09:21am WSW 7 8 - - - - 10 Cloudy - 10.8 1032.8 0.0
31/09:00am W 5 7 - - - - 10 Cloudy - 11.0 1032.7 0.0
31/08:30am W 5 7 - - - - 10 Cloudy - 10.9 1032.8 0.0
31/08:00am WNW 5 7 - - - - 10 Cloudy - 10.6 1032.7 0.0
31/07:30am W 4 6 - - - - 10 Cloudy - 10.5 1032.5 0.0
31/07:00am W 4 6 - - - - 10 Cloudy - 10.3 1032.4 0.0
31/06:30am WNW 4 5 - - - - 10 Cloudy - 10.4 1032.3 0.0
31/06:00am WNW 5 7 - - - - 10 Cloudy - 10.5 1032.2 0.0
31/05:30am WNW 7 8 - - - - 10 Cloudy - 10.6 1032.2 0.0
31/05:12am W 6 9 - - - - 10 Mostly clear - 10.8 1032.1 0.0
31/05:00am WNW 7 9 - - - - 10 Partly cloudy - 10.8 1032.0 0.0
31/04:30am W 5 6 - - - - 10 Cloudy - 11.1 1032.1 0.0
31/04:02am W 6 8 - - - - 10 Partly cloudy - 11.4 1032.0 0.0
31/04:00am W 5 8 - - - - 10 Partly cloudy - 11.3 1032.0 0.0
31/03:30am CALM 0 0 - - - - 10 Cloudy - 11.7 1032.2 0.0
31/03:00am CALM 0 0 - - - - 10 Cloudy - 11.8 1032.4 0.0
31/02:30am NNW 3 3 - - - - 10 Cloudy - 11.6 1032.5 0.0
31/02:00am NNW 3 3 - - - - 10 Cloudy - 11.7 1032.7 0.0
31/01:30am CALM 0 0 - - - - 10 Cloudy - 11.7 1032.7 0.0

Other formats

Comma delimited format used in spreadsheet applications
http://www.bom.gov.au/fwo/IDV60701/IDV60701.94870.axf

JavaScript Object Notation format (JSON) in row-major order
http://www.bom.gov.au/fwo/IDV60701/IDV60701.94870.json

Data quality

Most of these data are generated automatically and are frequently updated. Quality checks on data are not normally performed. It is possible for incorrect values to appear. Refer to information at About Latest Weather Observations and please check the disclaimer before using these data.